Time;durP1;ratioP1;P1;durP2;ratioP2;P2;SDS_P1;SDS_P2;PMS_P1;PMS_P2;Temp;Humidity;BMP_temperature;BMP_pressure;BME280_temperature;BME280_humidity;BME280_pressure;Samples;Min_cycle;Max_cycle;Signal;HPM_P1;HPM_P2
2022/02/24 00:02:19;;;;;;;4.95;3.05;;;;;;;3.53;81.25;97826.00;5036390;28;20033;-57
2022/02/24 00:04:47;;;;;;;7.32;3.22;;;;;;;3.42;81.86;97822.03;5040822;28;20059;-61
2022/02/24 00:07:15;;;;;;;7.60;3.72;;;;;;;3.41;81.49;97823.84;5045879;28;20119;-58
2022/02/24 00:09:41;;;;;;;6.68;3.00;;;;;;;3.56;81.10;97820.25;5046958;28;20044;-60
2022/02/24 00:12:08;;;;;;;6.63;3.38;;;;;;;3.70;80.42;97826.53;5036454;28;20037;-60
2022/02/24 00:14:37;;;;;;;7.45;3.55;;;;;;;3.64;80.40;97823.63;5038667;28;20691;-60
2022/02/24 00:17:04;;;;;;;6.20;3.38;;;;;;;3.67;80.19;97817.03;5027275;28;20053;-60
2022/02/24 00:19:31;;;;;;;6.43;3.13;;;;;;;3.56;80.78;97814.88;5037787;28;20503;-60
2022/02/24 00:21:57;;;;;;;7.30;3.17;;;;;;;3.51;80.87;97805.59;5042747;28;20052;-58
2022/02/24 00:24:24;;;;;;;5.22;3.20;;;;;;;3.60;80.62;97810.81;5038615;28;20064;-60
2022/02/24 00:26:51;;;;;;;5.80;3.08;;;;;;;3.49;81.15;97810.34;5041593;28;20118;-61
2022/02/24 00:29:17;;;;;;;6.25;2.53;;;;;;;3.69;79.78;97809.63;5037775;28;20049;-61
2022/02/24 00:31:44;;;;;;;10.05;3.30;;;;;;;3.82;79.69;97816.91;5031855;28;20045;-60
2022/02/24 00:34:11;;;;;;;6.68;2.70;;;;;;;3.81;79.80;97817.13;5032245;28;20056;-60
2022/02/24 00:36:38;;;;;;;7.43;3.40;;;;;;;3.55;80.79;97814.09;5038307;28;20416;-61
2022/02/24 00:39:04;;;;;;;5.10;3.08;;;;;;;3.39;81.76;97809.81;5046508;28;20542;-60
2022/02/24 00:41:32;;;;;;;6.72;2.85;;;;;;;3.30;81.88;97801.13;5041348;28;20045;-60
2022/02/24 00:43:58;;;;;;;7.03;3.38;;;;;;;3.35;82.00;97822.78;5040225;28;20103;-60
2022/02/24 00:46:25;;;;;;;5.57;2.97;;;;;;;3.51;81.26;97823.53;5026253;28;20083;-59
2022/02/24 00:48:52;;;;;;;8.75;3.53;;;;;;;3.52;81.08;97819.81;5040906;28;20219;-60
2022/02/24 00:51:18;;;;;;;4.97;2.90;;;;;;;3.43;81.38;97821.00;5037353;28;20044;-60
2022/02/24 00:53:45;;;;;;;5.35;2.95;;;;;;;3.17;81.96;97814.41;5026759;28;20069;-60
2022/02/24 00:56:13;;;;;;;6.78;3.35;;;;;;;3.01;82.86;97807.47;5034217;28;20052;-59
2022/02/24 00:58:40;;;;;;;7.47;3.35;;;;;;;2.97;83.36;97807.03;5046233;28;20095;-60
2022/02/24 01:01:06;;;;;;;6.00;3.08;;;;;;;2.96;83.31;97806.22;5027371;28;20374;-59
2022/02/24 01:03:33;;;;;;;5.95;2.83;;;;;;;3.14;82.73;97809.44;5046272;28;20041;-60
2022/02/24 01:06:00;;;;;;;8.68;2.30;;;;;;;3.26;81.91;97794.50;5040618;28;20075;-60
2022/02/24 01:08:26;;;;;;;4.97;2.38;;;;;;;3.29;81.46;97793.28;5065543;28;20044;-61
2022/02/24 01:10:53;;;;;;;5.22;2.28;;;;;;;3.31;81.12;97789.41;5048587;28;20445;-60
2022/02/24 01:13:20;;;;;;;7.80;2.85;;;;;;;3.27;81.22;97790.00;5026232;28;20049;-60
2022/02/24 01:15:46;;;;;;;5.93;2.72;;;;;;;3.37;81.06;97791.31;5029257;28;20086;-59
2022/02/24 01:18:13;;;;;;;5.10;2.85;;;;;;;3.32;81.18;97795.59;5045911;28;20135;-60
2022/02/24 01:20:39;;;;;;;4.75;2.58;;;;;;;3.15;81.71;97787.00;5030038;28;20041;-59
2022/02/24 01:23:06;;;;;;;6.57;2.95;;;;;;;2.82;83.14;97777.69;5043393;28;20041;-60
2022/02/24 01:25:33;;;;;;;6.22;2.80;;;;;;;2.66;84.02;97778.78;5042699;28;20508;-60
2022/02/24 01:28:00;;;;;;;6.60;2.90;;;;;;;2.66;83.93;97781.44;5025803;28;20493;-56
2022/02/24 01:30:28;;;;;;;5.30;3.00;;;;;;;2.62;84.15;97770.31;5028113;28;20464;-61
2022/02/24 01:32:55;;;;;;;6.75;2.80;;;;;;;2.49;84.27;97772.81;5040406;28;20130;-60
2022/02/24 01:35:24;;;;;;;5.72;3.10;;;;;;;2.31;85.01;97761.56;5026718;28;20080;-61
2022/02/24 01:37:51;;;;;;;6.38;3.10;;;;;;;2.21;85.11;97761.03;5025588;28;20041;-60
2022/02/24 01:40:18;;;;;;;6.13;3.20;;;;;;;2.05;85.83;97749.56;5043799;28;20063;-60
2022/02/24 01:42:45;;;;;;;6.07;3.38;;;;;;;2.06;86.06;97750.38;5045143;28;20041;-61
2022/02/24 01:45:13;;;;;;;9.18;3.50;;;;;;;1.92;85.93;97752.06;5030288;28;20190;-60
2022/02/24 01:47:41;;;;;;;5.55;3.10;;;;;;;1.91;86.31;97742.38;5036051;28;20041;-60
2022/02/24 01:50:10;;;;;;;8.82;3.35;;;;;;;1.97;86.89;97735.47;5044472;28;20055;-60
2022/02/24 01:52:36;;;;;;;5.13;2.78;;;;;;;2.07;86.58;97744.03;5033822;28;20045;-60
2022/02/24 01:55:03;;;;;;;6.47;3.45;;;;;;;2.01;86.33;97732.25;5026563;28;20045;-59
2022/02/24 01:57:31;;;;;;;5.53;2.55;;;;;;;2.06;86.17;97737.00;5036693;28;20130;-60
2022/02/24 01:59:58;;;;;;;6.70;3.17;;;;;;;2.05;86.45;97733.53;5032988;28;20050;-60
2022/02/24 02:02:24;;;;;;;5.28;3.10;;;;;;;2.17;86.21;97730.34;5033945;28;20091;-60
2022/02/24 02:04:51;;;;;;;7.85;2.92;;;;;;;2.24;86.07;97717.09;5036212;28;20064;-60
2022/02/24 02:07:21;;;;;;;4.47;2.45;;;;;;;2.30;85.90;97719.81;5056277;28;20395;-60
2022/02/24 02:09:49;;;;;;;5.03;2.92;;;;;;;2.42;85.72;97712.13;5028212;28;20046;-60
2022/02/24 02:12:18;;;;;;;6.97;2.50;;;;;;;2.48;85.53;97707.88;5035633;28;20047;-60
2022/02/24 02:14:45;;;;;;;6.28;2.30;;;;;;;2.58;85.38;97707.56;5049634;28;20057;-61
2022/02/24 02:17:12;;;;;;;4.80;2.60;;;;;;;2.50;85.55;97702.34;5043362;28;20404;-61
2022/02/24 02:19:39;;;;;;;4.35;2.10;;;;;;;2.54;85.42;97695.59;5037708;28;20049;-60
2022/02/24 02:22:06;;;;;;;5.18;2.75;;;;;;;2.52;85.50;97701.13;5048154;28;20052;-61
2022/02/24 02:24:36;;;;;;;4.30;2.35;;;;;;;2.48;85.79;97697.19;5045576;28;20080;-61
2022/02/24 02:27:03;;;;;;;7.75;3.00;;;;;;;2.47;85.92;97685.66;5031551;28;20056;-61
2022/02/24 02:29:30;;;;;;;5.35;2.15;;;;;;;2.58;85.25;97681.63;5037072;28;20045;-61
2022/02/24 02:31:57;;;;;;;4.32;2.33;;;;;;;2.63;85.61;97675.72;5041172;28;20041;-61
2022/02/24 02:34:23;;;;;;;3.72;2.20;;;;;;;2.71;85.35;97680.91;5028726;28;20602;-60
2022/02/24 02:36:50;;;;;;;4.00;2.53;;;;;;;2.82;84.48;97674.22;5047661;28;20099;-61
2022/02/24 02:39:17;;;;;;;5.28;2.50;;;;;;;2.90;84.49;97670.56;5043152;28;20034;-60
2022/02/24 02:41:45;;;;;;;4.25;2.42;;;;;;;2.91;84.17;97671.41;5028264;28;20041;-60
2022/02/24 02:44:13;;;;;;;6.00;2.22;;;;;;;2.85;84.46;97676.47;5039178;28;20042;-61
2022/02/24 02:46:43;;;;;;;5.97;2.70;;;;;;;2.90;84.50;97669.72;5027946;28;20730;-60
2022/02/24 02:49:09;;;;;;;6.80;3.03;;;;;;;2.91;84.02;97666.84;5032936;28;20049;-60
2022/02/24 02:51:36;;;;;;;6.60;3.00;;;;;;;2.84;84.63;97664.13;5029378;28;20603;-60
2022/02/24 02:54:03;;;;;;;6.40;2.58;;;;;;;2.86;84.79;97658.59;5028576;28;20050;-60
2022/02/24 02:56:29;;;;;;;4.43;2.22;;;;;;;2.92;84.24;97651.63;5044102;28;20052;-61
2022/02/24 02:58:56;;;;;;;5.93;2.55;;;;;;;2.92;84.65;97651.63;5036247;28;20667;-61
2022/02/24 03:01:23;;;;;;;4.50;2.05;;;;;;;2.91;84.66;97653.47;5030215;28;20607;-60
2022/02/24 03:03:49;;;;;;;5.63;2.40;;;;;;;2.80;84.88;97649.50;5048113;28;20040;-61
2022/02/24 03:06:16;;;;;;;4.78;2.45;;;;;;;2.85;84.78;97646.25;5046013;28;20041;-61
2022/02/24 03:08:44;;;;;;;7.18;2.70;;;;;;;2.85;84.52;97641.72;5028142;28;20434;-61
2022/02/24 03:11:10;;;;;;;4.13;2.45;;;;;;;2.84;85.10;97641.94;5034517;28;20409;-61
2022/02/24 03:13:37;;;;;;;5.13;2.33;;;;;;;3.04;84.56;97644.72;5039995;28;20048;-61
2022/02/24 03:16:04;;;;;;;5.53;2.22;;;;;;;3.14;83.72;97639.03;5045951;28;20056;-60
2022/02/24 03:18:31;;;;;;;6.32;2.35;;;;;;;3.02;83.82;97628.03;5039606;28;20417;-61
2022/02/24 03:20:58;;;;;;;4.35;2.33;;;;;;;2.97;84.20;97630.47;5029563;28;20037;-60
2022/02/24 03:23:24;;;;;;;4.65;2.05;;;;;;;2.95;84.73;97622.63;5047941;28;20107;-59
2022/02/24 03:25:52;;;;;;;3.72;1.90;;;;;;;2.99;84.29;97623.91;5046669;28;20082;-60
2022/02/24 03:28:19;;;;;;;4.03;2.10;;;;;;;3.00;84.24;97619.38;5041495;28;20091;-61
2022/02/24 03:30:45;;;;;;;4.22;2.10;;;;;;;3.00;84.63;97616.72;5027312;28;20061;-60
2022/02/24 03:33:12;;;;;;;4.28;1.90;;;;;;;3.16;84.31;97606.72;5039422;28;20103;-61
2022/02/24 03:35:43;;;;;;;4.10;1.98;;;;;;;3.33;83.18;97607.19;5042433;28;20044;-60
2022/02/24 03:38:10;;;;;;;4.68;1.77;;;;;;;3.35;82.98;97605.97;5045755;28;20048;-61
2022/02/24 03:40:37;;;;;;;4.75;2.00;;;;;;;3.49;82.11;97596.16;5047416;28;20078;-61
2022/02/24 03:43:03;;;;;;;3.25;1.88;;;;;;;3.59;81.39;97601.13;5047380;28;20459;-60
2022/02/24 03:45:30;;;;;;;6.43;1.73;;;;;;;3.66;80.86;97595.78;5047401;28;20423;-62
2022/02/24 03:47:58;;;;;;;4.53;1.90;;;;;;;3.61;81.00;97593.69;5046120;28;20132;-60
2022/02/24 03:50:24;;;;;;;4.47;2.25;;;;;;;3.61;80.78;97592.91;5044534;28;20490;-61
2022/02/24 03:52:51;;;;;;;3.42;1.73;;;;;;;3.65;80.54;97583.44;5027306;28;20046;-61
2022/02/24 03:55:18;;;;;;;5.38;1.83;;;;;;;3.66;80.46;97590.44;5027822;28;20045;-61
2022/02/24 03:57:44;;;;;;;6.50;2.28;;;;;;;3.51;80.91;97588.72;5041155;28;20860;-60
2022/02/24 04:00:11;;;;;;;4.03;2.22;;;;;;;3.44;81.24;97573.69;5032441;28;20045;-60
2022/02/24 04:02:42;;;;;;;3.83;2.20;;;;;;;3.43;81.17;97580.06;5042411;28;20041;-60
2022/02/24 04:05:13;;;;;;;4.63;2.17;;;;;;;3.38;81.44;97576.13;5033822;28;20055;-60
2022/02/24 04:07:41;;;;;;;3.30;1.60;;;;;;;3.42;81.24;97576.53;5045224;28;20045;-59
2022/02/24 04:10:08;;;;;;;7.50;2.20;;;;;;;3.42;81.13;97584.56;5028656;28;20048;-59
2022/02/24 04:12:34;;;;;;;4.80;2.25;;;;;;;3.52;80.54;97568.13;5043244;28;20048;-59
2022/02/24 04:15:01;;;;;;;4.57;2.00;;;;;;;3.58;80.02;97566.50;5034307;28;20100;-59
2022/02/24 04:17:29;;;;;;;4.00;1.85;;;;;;;3.55;80.15;97561.56;5046003;28;20044;-60
2022/02/24 04:19:55;;;;;;;6.15;1.95;;;;;;;3.57;80.11;97560.31;5046120;28;20159;-59
2022/02/24 04:22:22;;;;;;;7.82;2.15;;;;;;;3.59;79.74;97554.78;5034748;28;20033;-59
2022/02/24 04:24:48;;;;;;;4.38;1.83;;;;;;;3.53;80.01;97555.59;5045796;28;20404;-60
2022/02/24 04:27:16;;;;;;;3.78;2.13;;;;;;;3.41;80.21;97549.97;5044605;28;20123;-60
2022/02/24 04:29:42;;;;;;;6.55;2.33;;;;;;;3.38;80.40;97562.75;5028672;28;20048;-60
2022/02/24 04:32:09;;;;;;;4.80;2.13;;;;;;;3.31;80.85;97553.06;5035305;28;20041;-64
2022/02/24 04:34:36;;;;;;;4.28;2.50;;;;;;;3.25;81.45;97555.47;5039291;28;20041;-63
2022/02/24 04:37:03;;;;;;;3.95;2.10;;;;;;;3.44;80.83;97553.09;5025976;28;20069;-66
2022/02/24 04:39:30;;;;;;;4.55;1.98;;;;;;;3.48;80.57;97540.97;5031783;28;20045;-64
2022/02/24 04:41:57;;;;;;;7.30;1.98;;;;;;;3.51;80.60;97542.41;5046052;28;20115;-65
2022/02/24 04:44:23;;;;;;;3.67;1.83;;;;;;;3.42;80.96;97525.69;5040863;28;20047;-65
2022/02/24 04:46:50;;;;;;;5.25;1.80;;;;;;;3.41;80.97;97526.72;5037233;28;20087;-64
2022/02/24 04:49:17;;;;;;;3.60;1.80;;;;;;;3.51;80.80;97516.44;5044135;28;20049;-66
2022/02/24 04:51:43;;;;;;;4.45;2.15;;;;;;;3.48;80.84;97518.69;5027697;28;20041;-65
2022/02/24 04:54:10;;;;;;;4.25;2.00;;;;;;;3.33;81.37;97517.03;5026024;28;20108;-65
2022/02/24 04:56:36;;;;;;;6.53;2.67;;;;;;;3.23;81.79;97512.06;5031935;28;20048;-64
2022/02/24 04:59:03;;;;;;;4.25;2.15;;;;;;;3.23;81.59;97508.53;5039415;28;20559;-66
2022/02/24 05:01:30;;;;;;;3.63;1.70;;;;;;;3.29;81.06;97509.59;5032255;28;20682;-64
2022/02/24 05:04:01;;;;;;;5.15;2.22;;;;;;;3.27;80.85;97503.63;5046300;28;20738;-64
2022/02/24 05:06:27;;;;;;;4.97;2.28;;;;;;;3.12;81.77;97497.41;5045863;28;20033;-65
2022/02/24 05:08:54;;;;;;;4.70;2.13;;;;;;;3.13;81.46;97495.53;5038967;28;20049;-63
2022/02/24 05:11:21;;;;;;;4.68;2.10;;;;;;;3.11;81.41;97495.75;5045405;28;20053;-64
2022/02/24 05:13:47;;;;;;;4.15;1.95;;;;;;;3.09;81.50;97489.78;5037712;28;20701;-63
2022/02/24 05:16:14;;;;;;;4.28;2.03;;;;;;;3.07;81.40;97491.84;5028148;28;20045;-65
2022/02/24 05:18:40;;;;;;;3.42;2.10;;;;;;;2.96;81.91;97482.53;5043596;28;20045;-64
2022/02/24 05:21:07;;;;;;;4.20;2.30;;;;;;;2.83;82.51;97477.13;5027326;28;20127;-64
2022/02/24 05:23:34;;;;;;;5.80;2.22;;;;;;;2.80;82.55;97482.88;5046258;28;20041;-66
2022/02/24 05:26:00;;;;;;;4.78;2.25;;;;;;;2.76;82.86;97484.31;5043946;28;20072;-63
2022/02/24 05:28:27;;;;;;;5.28;2.60;;;;;;;2.64;83.38;97479.50;5045514;28;20102;-65
2022/02/24 05:30:59;;;;;;;5.68;2.88;;;;;;;2.60;83.36;97483.59;5024820;28;20060;-64
2022/02/24 05:33:30;;;;;;;5.40;2.42;;;;;;;2.56;83.54;97480.50;5044612;28;20037;-64
2022/02/24 05:35:57;;;;;;;4.60;2.15;;;;;;;2.62;83.56;97480.72;5044117;28;20073;-66
2022/02/24 05:38:24;;;;;;;6.10;2.58;;;;;;;2.64;83.40;97476.84;5028015;28;20052;-63
2022/02/24 05:40:50;;;;;;;3.95;2.03;;;;;;;2.61;83.47;97477.22;5045649;28;20116;-65
2022/02/24 05:43:17;;;;;;;6.60;2.33;;;;;;;2.53;83.71;97466.69;5035268;28;20561;-65
2022/02/24 05:45:44;;;;;;;4.55;2.42;;;;;;;2.51;83.73;97466.88;5029720;28;20423;-64
2022/02/24 05:48:12;;;;;;;5.93;2.50;;;;;;;2.55;83.49;97468.16;5025827;28;20050;-66
2022/02/24 05:50:39;;;;;;;5.90;2.40;;;;;;;2.54;83.50;97471.03;5025472;28;20139;-64
2022/02/24 05:53:06;;;;;;;4.25;2.38;;;;;;;2.46;83.71;97464.81;5025369;28;20049;-66
2022/02/24 05:55:34;;;;;;;4.35;2.55;;;;;;;2.37;83.88;97460.66;5025654;28;20524;-65
2022/02/24 05:58:01;;;;;;;7.05;2.75;;;;;;;2.40;84.07;97457.56;5025224;28;20069;-64
2022/02/24 06:00:28;;;;;;;5.00;2.20;;;;;;;2.47;83.99;97463.78;5025565;28;20049;-64
2022/02/24 06:02:55;;;;;;;5.20;2.25;;;;;;;2.40;83.96;97462.13;5038353;28;20087;-64
2022/02/24 06:05:22;;;;;;;6.03;3.25;;;;;;;2.31;84.37;97464.94;5033606;28;20057;-64
2022/02/24 06:07:48;;;;;;;5.95;2.88;;;;;;;2.34;84.51;97471.75;5027039;28;20049;-64
2022/02/24 06:10:15;;;;;;;5.82;2.67;;;;;;;2.39;83.91;97476.50;5027340;28;20041;-63
2022/02/24 06:12:42;;;;;;;3.95;2.20;;;;;;;2.40;84.34;97470.94;5040454;28;20572;-63
2022/02/24 06:15:09;;;;;;;6.35;2.65;;;;;;;2.36;84.36;97480.38;5023448;28;20041;-65
2022/02/24 06:17:36;;;;;;;5.78;2.70;;;;;;;2.28;84.94;97484.03;5045671;28;20055;-65
2022/02/24 06:20:04;;;;;;;4.75;2.90;;;;;;;2.29;85.14;97488.34;5061660;28;20040;-64
2022/02/24 06:22:31;;;;;;;8.45;4.10;;;;;;;2.35;84.69;97481.41;5040882;28;20444;-65
2022/02/24 06:24:57;;;;;;;5.75;3.05;;;;;;;2.36;84.57;97483.03;5037090;28;20049;-66
2022/02/24 06:27:24;;;;;;;7.47;3.88;;;;;;;2.36;84.53;97477.69;5038555;28;20053;-64
2022/02/24 06:29:51;;;;;;;6.55;3.45;;;;;;;2.40;84.40;97465.59;5038255;28;21089;-66
2022/02/24 06:32:17;;;;;;;8.43;4.57;;;;;;;2.38;84.80;97473.00;5040879;28;20052;-64
2022/02/24 06:34:44;;;;;;;8.32;4.00;;;;;;;2.36;84.59;97475.03;5034154;28;20045;-66
2022/02/24 06:37:11;;;;;;;10.48;4.95;;;;;;;2.43;84.34;97465.22;5038795;28;20048;-65
2022/02/24 06:39:38;;;;;;;7.60;3.58;;;;;;;2.46;84.45;97462.16;5040632;28;20444;-66
2022/02/24 06:42:07;;;;;;;6.63;3.83;;;;;;;2.46;84.37;97459.47;5057952;28;20048;-65
2022/02/24 06:44:33;;;;;;;5.75;2.70;;;;;;;2.48;84.37;97461.97;5036172;28;20060;-65
2022/02/24 06:47:00;;;;;;;5.25;2.85;;;;;;;2.55;83.92;97456.66;5041184;28;20079;-63
2022/02/24 06:49:27;;;;;;;5.05;2.85;;;;;;;2.57;83.71;97452.75;5039539;28;20049;-64
2022/02/24 06:51:55;;;;;;;4.97;3.00;;;;;;;2.55;84.01;97444.09;5029523;28;20110;-65
2022/02/24 06:54:21;;;;;;;5.82;2.90;;;;;;;2.56;83.97;97440.41;5035815;28;20037;-65
2022/02/24 06:56:48;;;;;;;7.53;4.45;;;;;;;2.51;84.50;97445.50;5041065;28;20563;-63
2022/02/24 06:59:15;;;;;;;5.45;3.03;;;;;;;2.62;83.83;97438.78;5046966;28;20056;-64
2022/02/24 07:01:43;;;;;;;12.63;5.70;;;;;;;2.60;83.63;97436.31;5046468;28;20045;-64
2022/02/24 07:04:10;;;;;;;8.40;3.50;;;;;;;2.55;84.07;97436.06;5049839;28;20501;-64
2022/02/24 07:06:37;;;;;;;11.98;5.45;;;;;;;2.51;83.95;97434.00;5050678;28;20044;-64
2022/02/24 07:09:04;;;;;;;10.82;4.15;;;;;;;2.55;84.54;97428.03;5058376;28;20599;-65
2022/02/24 07:11:30;;;;;;;14.63;4.97;;;;;;;2.69;83.80;97426.25;5047261;28;20582;-63
2022/02/24 07:13:57;;;;;;;14.48;6.88;;;;;;;2.81;83.42;97423.84;5043558;28;20856;-64
2022/02/24 07:16:29;;;;;;;9.82;3.55;;;;;;;2.94;82.67;97423.06;5039210;28;20057;-63
2022/02/24 07:18:56;;;;;;;14.40;4.53;;;;;;;2.99;82.62;97427.81;5037754;28;20489;-63
2022/02/24 07:21:23;;;;;;;15.88;6.68;;;;;;;2.94;82.84;97419.53;5036435;28;20033;-63
2022/02/24 07:23:49;;;;;;;6.18;2.72;;;;;;;3.11;82.63;97422.69;5047827;28;20045;-65
2022/02/24 07:26:16;;;;;;;11.02;3.88;;;;;;;3.16;82.52;97419.41;5047251;28;20040;-66
2022/02/24 07:28:43;;;;;;;9.68;4.20;;;;;;;3.21;82.42;97423.09;5047336;28;20041;-65
2022/02/24 07:31:12;;;;;;;9.85;4.10;;;;;;;3.31;81.82;97420.03;5042301;28;20049;-65
2022/02/24 07:33:39;;;;;;;12.32;5.88;;;;;;;3.40;81.60;97419.84;5036980;28;20041;-65
2022/02/24 07:36:05;;;;;;;5.00;2.53;;;;;;;3.58;80.96;97420.06;5045548;28;20049;-63
2022/02/24 07:38:32;;;;;;;6.05;2.90;;;;;;;3.75;80.00;97409.78;5023231;28;20049;-65
2022/02/24 07:40:59;;;;;;;6.63;3.83;;;;;;;3.91;79.40;97410.38;5028088;28;20748;-64
2022/02/24 07:43:25;;;;;;;19.83;7.40;;;;;;;3.91;79.45;97407.69;5037374;28;20048;-64
2022/02/24 07:45:52;;;;;;;8.32;4.40;;;;;;;4.05;78.93;97411.16;5033688;28;20052;-64
2022/02/24 07:48:18;;;;;;;10.63;4.63;;;;;;;4.07;79.13;97401.06;5046172;28;20052;-65
2022/02/24 07:50:45;;;;;;;5.80;2.40;;;;;;;4.21;78.32;97393.00;5035885;28;20048;-64
2022/02/24 07:53:14;;;;;;;10.95;3.88;;;;;;;4.27;78.33;97389.47;5035441;28;20039;-52
2022/02/24 07:55:41;;;;;;;11.30;3.90;;;;;;;4.46;77.81;97382.38;5047358;28;20067;-56
2022/02/24 07:58:09;;;;;;;12.13;5.70;;;;;;;4.52;77.21;97389.59;5034672;28;20041;-60
2022/02/24 08:00:37;;;;;;;7.90;2.50;;;;;;;4.61;77.30;97375.97;5045718;28;20179;-51
2022/02/24 08:03:04;;;;;;;5.95;2.90;;;;;;;4.81;76.50;97375.84;5052568;28;20721;-51
2022/02/24 08:05:31;;;;;;;4.90;2.88;;;;;;;4.94;76.04;97377.66;5045726;28;20432;-58
2022/02/24 08:07:58;;;;;;;9.75;4.53;;;;;;;4.99;75.68;97375.13;5043119;28;20079;-54
2022/02/24 08:10:24;;;;;;;6.53;2.60;;;;;;;5.17;74.90;97369.00;5056777;28;20638;-48
2022/02/24 08:12:51;;;;;;;4.93;2.38;;;;;;;5.22;74.45;97371.06;5039447;28;20045;-55
2022/02/24 08:15:21;;;;;;;6.47;2.40;;;;;;;5.25;75.68;97373.31;5037917;28;20103;-54
2022/02/24 08:17:50;;;;;;;6.93;2.60;;;;;;;5.43;75.01;97369.06;5038911;28;20691;-56
2022/02/24 08:20:16;;;;;;;5.88;3.00;;;;;;;5.69;74.96;97359.13;5043750;28;20049;-56
2022/02/24 08:22:49;;;;;;;7.97;3.85;;;;;;;5.88;73.26;97364.53;5029792;28;20553;-54
2022/02/24 08:25:18;;;;;;;6.22;2.55;;;;;;;6.12;73.13;97357.50;5035095;28;20389;-58
2022/02/24 08:27:46;;;;;;;7.45;3.10;;;;;;;5.81;73.40;97362.72;5043865;28;20429;-67
2022/02/24 08:30:17;;;;;;;46.97;16.83;;;;;;;5.82;73.21;97356.31;5043446;28;20048;-68
2022/02/24 08:32:45;;;;;;;12.38;5.18;;;;;;;5.73;73.64;97355.78;5033253;28;20057;-68
2022/02/24 08:35:13;;;;;;;24.70;9.52;;;;;;;5.90;73.01;97357.88;5041078;28;20045;-69
2022/02/24 08:37:41;;;;;;;18.58;7.55;;;;;;;6.00;72.67;97343.94;5034602;28;20048;-68
2022/02/24 08:40:08;;;;;;;10.50;4.85;;;;;;;6.09;72.15;97336.44;5044501;28;20053;-67
2022/02/24 08:42:35;;;;;;;11.98;5.68;;;;;;;6.20;71.95;97337.56;5034057;28;20055;-67
2022/02/24 08:45:03;;;;;;;7.78;3.30;;;;;;;6.23;71.45;97340.59;5030025;28;20046;-66
2022/02/24 08:47:34;;;;;;;6.43;2.95;;;;;;;6.32;71.37;97337.63;5041753;28;20074;-67
2022/02/24 08:50:01;;;;;;;7.53;3.30;;;;;;;6.45;71.21;97342.03;5028168;28;20053;-66
2022/02/24 08:52:48;;;;;;;7.40;4.20;;;;;;;6.57;70.47;97324.09;5021942;28;20625;-68
2022/02/24 08:55:15;;;;;;;4.85;2.88;;;;;;;6.60;70.68;97331.69;5036785;28;20040;-68
2022/02/24 08:57:41;;;;;;;5.90;2.63;;;;;;;6.80;70.61;97330.59;5024898;28;20068;-68
2022/02/24 09:00:08;;;;;;;7.55;4.38;;;;;;;6.85;69.88;97327.19;5024388;28;20041;-68
2022/02/24 09:02:36;;;;;;;6.22;3.58;;;;;;;6.86;70.01;97335.06;5041034;28;20056;-63
2022/02/24 09:05:03;;;;;;;7.30;3.00;;;;;;;7.04;69.22;97319.88;5040694;28;20052;-66
2022/02/24 09:07:33;;;;;;;8.45;3.17;;;;;;;7.21;68.60;97314.66;5047003;28;20181;-67
2022/02/24 09:10:19;;;;;;;5.63;2.35;;;;;;;7.36;68.34;97316.91;5033941;28;20125;-67
2022/02/24 09:12:46;;;;;;;4.78;2.15;;;;;;;7.45;67.82;97309.31;5052125;28;20055;-66
2022/02/24 09:15:13;;;;;;;6.70;3.30;;;;;;;7.53;67.30;97308.16;5047022;28;20043;-67
2022/02/24 09:17:39;;;;;;;5.55;2.90;;;;;;;7.68;67.29;97303.09;5061706;28;20037;-66
2022/02/24 09:20:07;;;;;;;4.03;1.65;;;;;;;7.78;66.74;97297.13;5024705;28;20053;-67
2022/02/24 09:22:35;;;;;;;5.28;2.00;;;;;;;7.81;66.35;97291.25;5031420;28;20057;-68
2022/02/24 09:25:03;;;;;;;3.97;1.85;;;;;;;7.97;66.17;97294.31;5032980;28;20037;-66
2022/02/24 09:27:31;;;;;;;3.70;1.70;;;;;;;8.04;65.68;97280.69;5037072;28;20149;-66
2022/02/24 09:29:58;;;;;;;5.20;2.20;;;;;;;8.05;65.50;97285.84;5035942;28;20046;-69
2022/02/24 09:32:26;;;;;;;3.95;1.50;;;;;;;8.06;64.85;97270.47;5044317;28;20037;-68
2022/02/24 09:34:53;;;;;;;4.13;1.65;;;;;;;8.18;65.11;97273.97;5045219;28;20047;-68
2022/02/24 09:37:20;;;;;;;8.60;3.72;;;;;;;8.27;64.89;97262.78;5029472;28;20045;-66
2022/02/24 09:39:47;;;;;;;32.70;14.65;;;;;;;8.29;64.62;97268.78;5034620;28;20500;-69
2022/02/24 09:42:13;;;;;;;16.63;7.43;;;;;;;8.35;64.47;97266.97;5041641;28;20098;-69
2022/02/24 09:44:41;;;;;;;10.07;5.18;;;;;;;8.37;64.30;97271.06;5042998;28;20064;-68
2022/02/24 09:47:09;;;;;;;7.63;3.72;;;;;;;8.65;64.23;97264.09;5042703;28;20572;-67
2022/02/24 09:49:39;;;;;;;4.85;1.98;;;;;;;8.71;64.61;97260.41;5042762;28;20045;-67
2022/02/24 09:52:06;;;;;;;10.25;4.43;;;;;;;8.83;64.33;97257.66;5032796;28;20420;-67
2022/02/24 09:54:33;;;;;;;4.70;1.92;;;;;;;8.89;63.65;97255.88;5032205;28;20034;-66
2022/02/24 09:57:00;;;;;;;8.20;3.28;;;;;;;8.89;63.11;97241.53;5045556;28;20041;-67
2022/02/24 09:59:27;;;;;;;6.20;2.47;;;;;;;9.00;62.79;97243.34;5039677;28;20033;-67
2022/02/24 10:01:54;;;;;;;7.35;3.40;;;;;;;9.05;62.65;97239.91;5034948;28;20055;-66
2022/02/24 10:04:23;;;;;;;6.82;3.90;;;;;;;9.15;62.40;97237.38;5026146;28;20033;-68
2022/02/24 10:06:50;;;;;;;2.65;1.40;;;;;;;9.20;61.86;97229.34;5044684;28;20064;-68
2022/02/24 10:09:27;;;;;;;4.30;1.25;;;;;;;9.28;62.13;97230.81;5024694;28;20051;-69
2022/02/24 10:12:08;;;;;;;3.42;1.40;;;;;;;9.34;61.86;97220.91;5037263;28;20042;-69
2022/02/24 10:14:36;;;;;;;5.33;1.60;;;;;;;9.53;61.04;97205.22;5027024;28;20075;-68
2022/02/24 10:17:05;;;;;;;4.30;1.58;;;;;;;9.78;60.90;97213.94;5043126;28;20045;-67
2022/02/24 10:19:43;;;;;;;3.58;1.38;;;;;;;9.93;60.06;97211.44;5032740;28;20048;-68
2022/02/24 10:22:21;;;;;;;3.75;1.20;;;;;;;9.88;60.38;97209.47;5031433;28;20068;-64
2022/02/24 10:24:58;;;;;;;4.75;1.30;;;;;;;10.14;59.18;97208.97;5037473;28;20519;-65
2022/02/24 10:27:30;;;;;;;4.97;1.98;;;;;;;10.27;59.20;97200.44;5032418;28;20045;-68
2022/02/24 10:30:16;;;;;;;3.83;1.65;;;;;;;10.58;58.09;97194.53;5037529;28;20060;-66
2022/02/24 10:33:00;;;;;;;4.47;1.70;;;;;;;10.48;57.15;97195.28;5044293;28;20569;-67
2022/02/24 10:35:39;;;;;;;4.40;1.67;;;;;;;10.61;57.66;97193.25;5039559;28;20045;-68
2022/02/24 10:38:13;;;;;;;2.28;1.00;;;;;;;10.75;57.17;97188.19;5052154;28;20041;-67
2022/02/24 10:40:47;;;;;;;2.80;1.00;;;;;;;10.64;56.70;97184.59;5051839;28;20041;-68
2022/02/24 10:43:17;;;;;;;5.32;1.42;;;;;;;10.86;55.79;97173.69;5037458;28;20049;-65
2022/02/24 10:45:47;;;;;;;4.05;1.13;;;;;;;11.10;55.69;97183.34;5039405;28;20033;-66
2022/02/24 10:48:14;;;;;;;3.28;1.40;;;;;;;11.02;55.38;97173.81;5059273;28;20048;-68
2022/02/24 10:50:57;;;;;;;2.95;0.85;;;;;;;10.97;55.07;97190.00;5055232;28;20097;-66
2022/02/24 10:53:29;;;;;;;3.22;1.13;;;;;;;10.86;55.45;97178.25;5032424;28;20049;-68
2022/02/24 10:56:08;;;;;;;2.38;1.05;;;;;;;10.82;55.46;97172.56;5056157;28;20055;-65
2022/02/24 10:58:43;;;;;;;4.95;1.55;;;;;;;10.86;55.03;97170.97;5035278;28;20033;-66
2022/02/24 11:01:18;;;;;;;3.20;1.33;;;;;;;11.13;55.11;97167.38;5043207;28;20045;-66
2022/02/24 11:03:46;;;;;;;2.95;0.93;;;;;;;11.21;54.33;97163.38;5036077;28;20047;-65
2022/02/24 11:06:16;;;;;;;4.37;1.10;;;;;;;11.03;54.80;97164.59;5055671;28;20125;-68
2022/02/24 11:08:44;;;;;;;4.20;0.98;;;;;;;10.75;55.20;97167.34;5031830;28;20037;-68
2022/02/24 11:11:25;;;;;;;3.92;1.20;;;;;;;10.84;55.11;97151.44;5045691;28;20094;-69
2022/02/24 11:13:53;;;;;;;5.35;0.95;;;;;;;10.89;55.22;97161.50;5046523;28;20674;-68
2022/02/24 11:16:21;;;;;;;4.43;1.40;;;;;;;10.87;55.74;97150.13;5027123;28;20037;-67
2022/02/24 11:18:48;;;;;;;6.05;1.73;;;;;;;10.98;55.49;97145.59;5044372;28;20048;-67
2022/02/24 11:21:17;;;;;;;3.03;1.10;;;;;;;11.03;54.79;97145.63;5040316;28;20037;-67
2022/02/24 11:23:46;;;;;;;6.88;2.72;;;;;;;11.24;55.65;97141.13;5045065;28;20049;-67
2022/02/24 11:26:19;;;;;;;7.72;3.58;;;;;;;11.41;54.64;97149.13;5036019;28;20075;-68
2022/02/24 11:29:13;;;;;;;3.17;1.10;;;;;;;11.60;54.01;97137.00;5064612;28;20044;-69
2022/02/24 11:31:47;;;;;;;4.88;1.52;;;;;;;11.61;54.01;97144.84;5038407;28;20049;-68
2022/02/24 11:34:14;;;;;;;3.42;1.25;;;;;;;11.66;53.93;97133.22;5045914;28;20051;-68
2022/02/24 11:36:46;;;;;;;7.25;1.75;;;;;;;11.91;53.19;97134.41;5062098;28;20119;-67
2022/02/24 11:39:17;;;;;;;2.97;1.27;;;;;;;11.68;53.51;97131.88;5041773;28;20119;-66
2022/02/24 11:41:52;;;;;;;;;;;;;;;11.75;53.53;97139.75;5043786;28;20049;-67
2022/02/24 11:44:32;;;;;;;3.05;1.08;;;;;;;11.80;53.08;97109.16;5045107;28;19937;-64